createdAt,value
2023-03-21T00:01:53.167Z,100170.16
2023-03-21T00:04:22.106Z,100166.97
2023-03-21T00:06:50.843Z,100171.44
2023-03-21T00:09:19.602Z,100146.03
2023-03-21T00:11:49.790Z,100154.84
2023-03-21T00:14:20.674Z,100161.13
2023-03-21T00:16:50.933Z,100159.03
2023-03-21T00:19:21.097Z,100149.41
2023-03-21T00:22:06.526Z,100149.41
2023-03-21T00:24:36.866Z,100137.16
2023-03-21T00:27:43.076Z,100141.59
2023-03-21T00:29:56.335Z,100142.44
2023-03-21T00:32:24.924Z,100142.28
2023-03-21T00:35:21.567Z,100133.66
2023-03-21T00:37:41.954Z,100134.63
2023-03-21T00:40:32.930Z,100134.44
2023-03-21T00:43:04.966Z,100137.91
2023-03-21T00:45:33.787Z,100124.97
2023-03-21T00:48:02.689Z,100135.56
2023-03-21T00:50:32.656Z,100130.25
2023-03-21T00:53:01.317Z,100140.84
2023-03-21T00:55:30.127Z,100126.41
2023-03-21T00:58:02.202Z,100119.59
2023-03-21T01:00:33.569Z,100128.22
2023-03-21T01:03:21.295Z,100125.75
2023-03-21T01:06:08.348Z,100128.53
2023-03-21T01:08:51.762Z,100122.56
2023-03-21T01:11:23.404Z,100118.22
2023-03-21T01:13:59.743Z,100103.72
2023-03-21T01:16:35.232Z,100127.78
2023-03-21T01:19:06.947Z,100131.41
2023-03-21T01:21:36.050Z,100133.88
2023-03-21T01:24:04.923Z,100138.38
2023-03-21T01:26:33.708Z,100136.94
2023-03-21T01:29:02.283Z,100145.47
2023-03-21T01:31:30.860Z,100123.00
2023-03-21T01:34:00.998Z,100131.94
2023-03-21T01:36:29.497Z,100128.22
2023-03-21T01:38:57.965Z,100122.25
2023-03-21T01:41:41.951Z,100125.59
2023-03-21T01:44:17.568Z,100120.00
2023-03-21T01:47:00.397Z,100111.66
2023-03-21T01:49:46.453Z,100112.44
2023-03-21T01:52:33.408Z,100104.00
2023-03-21T01:55:05.969Z,100103.41
2023-03-21T01:57:51.853Z,100103.97
2023-03-21T02:00:29.852Z,100103.97
2023-03-21T02:03:11.585Z,100101.16
2023-03-21T02:05:56.087Z,100100.31
2023-03-21T02:08:36.861Z,100104.63
2023-03-21T02:11:10.204Z,100112.59
2023-03-21T02:13:38.758Z,100116.22
2023-03-21T02:16:15.583Z,100111.06
2023-03-21T02:18:51.982Z,100113.19
2023-03-21T02:22:00.665Z,100115.16
2023-03-21T02:24:59.633Z,100116.81
2023-03-21T02:27:36.363Z,100119.59
2023-03-21T02:30:45.541Z,100120.88
2023-03-21T02:33:50.064Z,100125.50
2023-03-21T02:36:27.185Z,100129.44
2023-03-21T02:39:13.430Z,100134.03
2023-03-21T02:41:50.614Z,100123.91
2023-03-21T02:44:27.606Z,100127.00
2023-03-21T02:47:05.859Z,100130.16
2023-03-21T02:49:43.508Z,100117.97
2023-03-21T02:52:35.589Z,100126.88
2023-03-21T02:55:14.415Z,100143.34
2023-03-21T02:57:46.544Z,100136.69
2023-03-21T03:00:20.118Z,100132.38
2023-03-21T03:02:54.596Z,100116.50
2023-03-21T03:05:30.332Z,100140.03
2023-03-21T03:08:10.476Z,100139.06
2023-03-21T03:10:53.278Z,100132.81
2023-03-21T03:13:34.208Z,100139.78
2023-03-21T03:16:12.151Z,100132.13
2023-03-21T03:18:48.402Z,100111.94
2023-03-21T03:21:22.332Z,100124.00
2023-03-21T03:23:54.412Z,100126.34
2023-03-21T03:26:27.952Z,100116.63
2023-03-21T03:29:01.617Z,100126.09
2023-03-21T03:31:35.040Z,100138.34
2023-03-21T03:34:08.911Z,100132.22
2023-03-21T03:36:41.339Z,100130.25
2023-03-21T03:39:12.756Z,100124.97
2023-03-21T03:42:07.888Z,100143.06
2023-03-21T03:44:38.328Z,100132.47
2023-03-21T03:47:11.901Z,100125.50
2023-03-21T03:49:49.968Z,100128.84
2023-03-21T03:52:22.326Z,100137.47
2023-03-21T03:54:52.623Z,100141.78
2023-03-21T03:57:23.241Z,100138.44
2023-03-21T03:59:51.947Z,100136.50
2023-03-21T04:02:20.685Z,100139.13
2023-03-21T04:04:53.224Z,100133.28
2023-03-21T04:07:22.609Z,100136.63
2023-03-21T04:09:52.346Z,100140.78
2023-03-21T04:12:22.333Z,100148.03
2023-03-21T04:14:51.933Z,100139.94
2023-03-21T04:17:21.822Z,100140.78
2023-03-21T04:19:57.702Z,100153.19
2023-03-21T04:22:34.078Z,100158.63
2023-03-21T04:25:02.867Z,100148.63
2023-03-21T04:27:33.605Z,100154.75
2023-03-21T04:30:02.315Z,100151.28
2023-03-21T04:32:34.222Z,100155.19
2023-03-21T04:35:02.744Z,100151.72
2023-03-21T04:37:34.129Z,100147.69
2023-03-21T04:40:06.784Z,100156.44
2023-03-21T04:42:39.266Z,100154.78
2023-03-21T04:45:09.182Z,100153.78
2023-03-21T04:47:37.802Z,100158.94
2023-03-21T04:50:07.217Z,100155.47
2023-03-21T04:52:35.830Z,100151.00
2023-03-21T04:55:04.588Z,100155.47
2023-03-21T04:57:33.191Z,100158.69
2023-03-21T05:00:03.373Z,100163.97
2023-03-21T05:02:31.806Z,100155.06
2023-03-21T05:05:00.470Z,100164.66
2023-03-21T05:07:28.936Z,100157.72
2023-03-21T05:09:57.550Z,100160.50
2023-03-21T05:12:26.214Z,100159.38
2023-03-21T05:14:55.001Z,100169.94
2023-03-21T05:17:25.178Z,100168.16
2023-03-21T05:19:54.325Z,100161.19
2023-03-21T05:22:24.477Z,100170.63
2023-03-21T05:24:55.656Z,100170.63
2023-03-21T05:27:36.019Z,100168.84
2023-03-21T05:30:07.643Z,100161.03
2023-03-21T05:32:37.814Z,100168.16
2023-03-21T05:35:07.254Z,100167.31
2023-03-21T05:37:35.859Z,100178.72
2023-03-21T05:40:05.990Z,100182.88
2023-03-21T05:42:34.780Z,100177.88
2023-03-21T05:45:03.413Z,100170.25
2023-03-21T05:47:32.844Z,100182.88
2023-03-21T05:50:03.378Z,100185.41
2023-03-21T05:52:32.200Z,100186.25
2023-03-21T05:55:00.866Z,100187.91
2023-03-21T05:57:29.978Z,100181.91
2023-03-21T05:59:58.861Z,100188.19
2023-03-21T06:02:27.614Z,100181.22
2023-03-21T06:04:56.907Z,100179.72
2023-03-21T06:07:26.934Z,100189.59
2023-03-21T06:09:55.480Z,100191.25
2023-03-21T06:12:24.084Z,100192.91
2023-03-21T06:14:52.768Z,100195.41
2023-03-21T06:17:26.704Z,100196.53
2023-03-21T06:19:55.980Z,100199.03
2023-03-21T06:22:24.792Z,100195.56
2023-03-21T06:24:54.905Z,100198.22
2023-03-21T06:27:23.722Z,100197.22
2023-03-21T06:29:52.395Z,100199.19
2023-03-21T06:32:21.193Z,100194.19
2023-03-21T06:34:50.189Z,100204.31
2023-03-21T06:37:19.087Z,100199.47
2023-03-21T06:39:48.290Z,100200.28
2023-03-21T06:42:18.402Z,100199.88
2023-03-21T06:44:47.115Z,100211.16
2023-03-21T06:47:16.165Z,100212.25
2023-03-21T06:49:45.003Z,100210.06
2023-03-21T06:52:13.704Z,100209.09
2023-03-21T06:54:42.617Z,100214.09
2023-03-21T06:57:11.798Z,100218.22
2023-03-21T06:59:43.158Z,100223.41
2023-03-21T07:02:12.307Z,100225.88
2023-03-21T07:04:41.115Z,100231.34
2023-03-21T07:07:09.828Z,100239.97
2023-03-21T07:09:38.915Z,100234.69
2023-03-21T07:12:07.622Z,100231.34
2023-03-21T07:14:43.496Z,100235.25
2023-03-21T07:17:14.363Z,100237.75
2023-03-21T07:19:44.822Z,100235.66
2023-03-21T07:22:13.529Z,100239.56
2023-03-21T07:24:42.442Z,100227.16
2023-03-21T07:27:11.219Z,100239.28
2023-03-21T07:29:39.943Z,100236.34
2023-03-21T07:32:08.608Z,100246.63
2023-03-21T07:34:38.724Z,100239.97
2023-03-21T07:37:07.722Z,100244.97
2023-03-21T07:39:37.038Z,100242.16
2023-03-21T07:42:06.031Z,100248.31
2023-03-21T07:44:35.833Z,100243.00
2023-03-21T07:47:04.479Z,100252.44
2023-03-21T07:49:33.056Z,100255.38
2023-03-21T07:52:04.839Z,100245.50
2023-03-21T07:54:33.971Z,100258.03
2023-03-21T07:57:02.482Z,100251.66
2023-03-21T07:59:30.946Z,100251.38
2023-03-21T08:01:59.564Z,100259.00
2023-03-21T08:04:28.248Z,100264.88
2023-03-21T08:06:57.669Z,100249.13
2023-03-21T08:09:28.404Z,100260.16
2023-03-21T08:11:58.420Z,100266.41
2023-03-21T08:14:27.104Z,100261.94
2023-03-21T08:16:55.721Z,100264.19
2023-03-21T08:19:24.700Z,100245.25
2023-03-21T08:21:53.485Z,100244.00
2023-03-21T08:24:22.191Z,100258.03
2023-03-21T08:26:52.291Z,100257.72
2023-03-21T08:29:21.804Z,100264.09
2023-03-21T08:31:50.700Z,100260.31
2023-03-21T08:34:19.851Z,100267.56
2023-03-21T08:36:48.525Z,100256.47
2023-03-21T08:39:17.398Z,100259.00
2023-03-21T08:41:46.201Z,100250.06
2023-03-21T08:44:17.301Z,100271.34
2023-03-21T08:46:45.942Z,100269.97
2023-03-21T08:49:17.070Z,100284.72
2023-03-21T08:51:46.277Z,100288.91
2023-03-21T08:54:21.723Z,100289.19
2023-03-21T08:56:50.714Z,100295.31
2023-03-21T08:59:20.854Z,100278.38
2023-03-21T09:01:49.477Z,100291.16
2023-03-21T09:04:19.210Z,100292.41
2023-03-21T09:06:49.073Z,100296.50
2023-03-21T09:09:18.345Z,100287.47
2023-03-21T09:11:46.962Z,100298.75
2023-03-21T09:14:15.842Z,100297.91
2023-03-21T09:16:46.383Z,100300.69
2023-03-21T09:19:15.592Z,100304.72
2023-03-21T09:21:44.496Z,100289.97
2023-03-21T09:24:13.580Z,100301.22
2023-03-21T09:26:44.341Z,100278.41
2023-03-21T09:29:13.227Z,100292.72
2023-03-21T09:31:44.040Z,100291.72
2023-03-21T09:34:14.676Z,100280.00
2023-03-21T09:36:44.441Z,100297.81
2023-03-21T09:39:13.489Z,100289.47
2023-03-21T09:42:07.355Z,100298.94
2023-03-21T09:44:56.884Z,100297.38
2023-03-21T09:47:29.414Z,100295.91
2023-03-21T09:50:14.001Z,100295.50
2023-03-21T09:52:49.900Z,100293.25
2023-03-21T09:55:21.616Z,100295.41
2023-03-21T09:57:54.432Z,100287.69
2023-03-21T10:00:29.898Z,100289.84
2023-03-21T10:03:01.958Z,100288.53
2023-03-21T10:05:34.544Z,100285.00
2023-03-21T10:08:08.174Z,100287.41
2023-03-21T10:10:39.509Z,100283.50
2023-03-21T10:13:17.122Z,100289.47
2023-03-21T10:15:45.875Z,100280.25
2023-03-21T10:18:22.708Z,100286.38
2023-03-21T10:20:53.636Z,100271.31
2023-03-21T10:23:27.136Z,100271.84
2023-03-21T10:25:58.910Z,100280.88
2023-03-21T10:28:34.534Z,100289.38
2023-03-21T10:31:09.873Z,100286.72
2023-03-21T10:33:40.293Z,100282.19
2023-03-21T10:36:14.238Z,100285.44
2023-03-21T10:38:47.580Z,100287.19
2023-03-21T10:41:16.218Z,100289.94
2023-03-21T10:43:47.054Z,100282.59
2023-03-21T10:46:19.289Z,100287.72
2023-03-21T10:48:53.551Z,100283.41
2023-03-21T10:51:28.603Z,100279.69
2023-03-21T10:53:59.840Z,100284.56
2023-03-21T10:56:30.618Z,100289.06
2023-03-21T10:59:02.086Z,100271.03
2023-03-21T11:01:36.848Z,100288.56
2023-03-21T11:04:10.714Z,100287.63
2023-03-21T11:06:46.957Z,100278.28
2023-03-21T11:09:17.616Z,100284.94
2023-03-21T11:11:53.022Z,100271.41
2023-03-21T11:14:34.294Z,100267.94
2023-03-21T11:17:02.866Z,100268.13
2023-03-21T11:19:37.923Z,100250.66
2023-03-21T11:22:09.493Z,100275.56
2023-03-21T11:24:38.238Z,100273.25
2023-03-21T11:27:09.819Z,100265.09
2023-03-21T11:29:41.459Z,100257.75
2023-03-21T11:32:15.622Z,100263.75
2023-03-21T11:34:49.011Z,100262.03
2023-03-21T11:37:26.473Z,100260.72
2023-03-21T11:40:06.636Z,100258.44
2023-03-21T11:42:43.711Z,100260.09
2023-03-21T11:45:17.999Z,100252.13
2023-03-21T11:47:47.255Z,100252.44
2023-03-21T11:50:22.737Z,100254.94
2023-03-21T11:53:01.196Z,100240.03
2023-03-21T11:55:42.238Z,100254.00
2023-03-21T11:58:30.996Z,100225.56
2023-03-21T12:01:10.371Z,100242.34
2023-03-21T12:04:18.684Z,100247.66
2023-03-21T12:06:55.588Z,100236.22
2023-03-21T12:09:41.592Z,100242.53
2023-03-21T12:12:38.049Z,100235.00
2023-03-21T12:15:14.755Z,100233.22
2023-03-21T12:17:55.370Z,100222.09
2023-03-21T12:20:41.837Z,100216.94
2023-03-21T12:23:24.994Z,100224.59
2023-03-21T12:26:14.430Z,100226.25
2023-03-21T12:28:58.652Z,100219.97
2023-03-21T12:31:34.964Z,100219.19
2023-03-21T12:34:20.113Z,100213.66
2023-03-21T12:37:09.203Z,100212.00
2023-03-21T12:39:40.622Z,100218.53
2023-03-21T12:42:39.681Z,100200.41
2023-03-21T12:45:17.288Z,100206.81
2023-03-21T12:47:51.240Z,100205.50
2023-03-21T12:50:24.223Z,100202.50
2023-03-21T12:52:57.348Z,100191.84
2023-03-21T12:55:29.362Z,100195.53
2023-03-21T12:58:04.886Z,100190.88
2023-03-21T13:00:39.859Z,100194.56
2023-03-21T13:03:18.298Z,100200.41
2023-03-21T13:05:53.225Z,100187.59
2023-03-21T13:08:27.373Z,100185.78
2023-03-21T13:10:59.017Z,100184.59
2023-03-21T13:13:37.038Z,100188.41
2023-03-21T13:16:11.268Z,100175.47
2023-03-21T13:18:53.694Z,100175.81
2023-03-21T13:21:40.799Z,100175.47
2023-03-21T13:24:21.529Z,100177.59
2023-03-21T13:26:52.290Z,100163.34
2023-03-21T13:29:28.594Z,100173.31
2023-03-21T13:32:00.615Z,100170.84
2023-03-21T13:34:29.262Z,100170.31
2023-03-21T13:37:00.992Z,100170.84
2023-03-21T13:39:33.075Z,100166.69
2023-03-21T13:42:07.216Z,100160.03
2023-03-21T13:44:43.543Z,100159.03
2023-03-21T13:47:46.185Z,100161.03
2023-03-21T13:50:36.736Z,100160.03
2023-03-21T13:53:34.796Z,100162.81
2023-03-21T13:56:20.622Z,100153.19
2023-03-21T13:58:59.992Z,100160.69
2023-03-21T14:01:42.013Z,100156.88
2023-03-21T14:04:17.628Z,100154.38
2023-03-21T14:06:52.363Z,100155.72
2023-03-21T14:09:27.403Z,100160.03
2023-03-21T14:12:03.881Z,100164.00
2023-03-21T14:14:40.034Z,100147.72
2023-03-21T14:17:15.732Z,100150.69
2023-03-21T14:19:44.385Z,100148.50
2023-03-21T14:22:14.601Z,100138.53
2023-03-21T14:24:49.388Z,100137.69
2023-03-21T14:27:18.282Z,100134.38
2023-03-21T14:29:49.058Z,100133.69
2023-03-21T14:32:24.166Z,100135.19
2023-03-21T14:34:53.102Z,100132.38
2023-03-21T14:37:34.642Z,100126.72
2023-03-21T14:40:09.280Z,100127.53
2023-03-21T14:42:39.656Z,100127.22
2023-03-21T14:45:20.765Z,100123.72
2023-03-21T14:48:02.771Z,100121.88
2023-03-21T14:50:40.306Z,100100.16
2023-03-21T14:53:13.401Z,100113.09
2023-03-21T14:55:47.724Z,100114.56
2023-03-21T14:58:18.355Z,100116.41
2023-03-21T15:00:50.384Z,100104.91
2023-03-21T15:03:23.816Z,100107.44
2023-03-21T15:05:52.549Z,100116.06
2023-03-21T15:08:24.506Z,100113.22
2023-03-21T15:11:06.857Z,100107.44
2023-03-21T15:13:39.154Z,100109.56
2023-03-21T15:16:09.471Z,100111.22
2023-03-21T15:18:41.547Z,100111.22
2023-03-21T15:21:16.834Z,100105.91
2023-03-21T15:23:48.519Z,100109.56
2023-03-21T15:26:21.065Z,100107.09
2023-03-21T15:28:52.074Z,100109.09
2023-03-21T15:31:23.099Z,100108.44
2023-03-21T15:33:56.685Z,100109.44
2023-03-21T15:36:28.698Z,100104.44
2023-03-21T15:38:57.439Z,100104.44
2023-03-21T15:41:30.212Z,100109.78
2023-03-21T15:44:15.237Z,100104.94
2023-03-21T15:46:46.419Z,100099.81
2023-03-21T15:49:27.486Z,100100.81
2023-03-21T15:52:01.017Z,100093.16
2023-03-21T15:54:32.564Z,100101.81
2023-03-21T15:57:09.529Z,100103.13
2023-03-21T15:59:42.266Z,100096.63
2023-03-21T16:02:21.875Z,100105.47
2023-03-21T16:04:59.787Z,100101.31
2023-03-21T16:07:28.639Z,100088.69
2023-03-21T16:10:02.589Z,100103.31
2023-03-21T16:12:31.325Z,100099.66
2023-03-21T16:14:59.889Z,100098.16
2023-03-21T16:17:35.851Z,100089.34
2023-03-21T16:20:06.794Z,100086.69
2023-03-21T16:22:36.110Z,100093.69
2023-03-21T16:25:05.440Z,100095.69
2023-03-21T16:27:34.162Z,100109.81
2023-03-21T16:30:02.848Z,100098.53
2023-03-21T16:32:31.446Z,100107.16
2023-03-21T16:35:00.432Z,100112.63
2023-03-21T16:37:30.272Z,100107.50
2023-03-21T16:39:59.047Z,100105.00
2023-03-21T16:42:27.548Z,100112.97
2023-03-21T16:44:56.092Z,100107.84
2023-03-21T16:47:25.567Z,100099.00
2023-03-21T16:49:54.029Z,100103.69
2023-03-21T16:52:24.504Z,100095.19
2023-03-21T16:54:55.867Z,100103.03
2023-03-21T16:57:29.670Z,100102.84
2023-03-21T16:59:58.344Z,100101.19
2023-03-21T17:02:29.940Z,100102.84
2023-03-21T17:04:58.535Z,100089.06
2023-03-21T17:07:28.201Z,100097.19
2023-03-21T17:09:58.318Z,100099.19
2023-03-21T17:12:26.988Z,100104.50
2023-03-21T17:14:55.562Z,100104.84
2023-03-21T17:17:24.050Z,100105.19
2023-03-21T17:19:52.945Z,100108.16
2023-03-21T17:22:21.685Z,100101.19
2023-03-21T17:24:51.088Z,100105.84
2023-03-21T17:27:21.375Z,100099.88
2023-03-21T17:29:51.064Z,100116.16
2023-03-21T17:32:19.816Z,100113.81
2023-03-21T17:34:53.208Z,100103.53
2023-03-21T17:37:26.378Z,100103.19
2023-03-21T17:39:55.206Z,100107.50
2023-03-21T17:42:25.152Z,100104.38
2023-03-21T17:44:53.754Z,100105.03
2023-03-21T17:47:26.062Z,100093.22
2023-03-21T17:49:54.608Z,100102.38
2023-03-21T17:52:24.733Z,100109.50
2023-03-21T17:54:53.325Z,100111.34
2023-03-21T17:57:22.536Z,100115.28
2023-03-21T17:59:52.860Z,100115.28
2023-03-21T18:02:21.502Z,100110.28
2023-03-21T18:04:50.306Z,100115.78
2023-03-21T18:07:28.694Z,100112.78
2023-03-21T18:10:08.811Z,100119.25
2023-03-21T18:12:38.118Z,100124.34
2023-03-21T18:15:14.321Z,100122.03
2023-03-21T18:17:45.274Z,100116.19
2023-03-21T18:20:17.517Z,100114.38
2023-03-21T18:22:46.633Z,100117.69
2023-03-21T18:25:16.531Z,100121.16
2023-03-21T18:28:09.174Z,100120.34
2023-03-21T18:30:56.481Z,100116.53
2023-03-21T18:33:23.746Z,100115.03
2023-03-21T18:35:58.839Z,100115.19
2023-03-21T18:38:28.108Z,100121.41
2023-03-21T18:40:57.177Z,100114.34
2023-03-21T18:46:18.345Z,100110.34
2023-03-21T18:48:49.227Z,100118.09
2023-03-21T18:51:17.991Z,100114.41
2023-03-21T18:53:46.619Z,100105.09
2023-03-21T18:56:57.747Z,100111.03
2023-03-21T18:59:04.935Z,100099.34
2023-03-21T19:01:36.055Z,100105.66
2023-03-21T19:04:23.122Z,100099.66
2023-03-21T19:06:54.219Z,100099.00
2023-03-21T19:09:29.618Z,100100.63
2023-03-21T19:12:01.023Z,100099.28
2023-03-21T19:14:29.479Z,100102.94
2023-03-21T19:17:55.897Z,100095.03
2023-03-21T19:19:49.376Z,100098.28
2023-03-21T19:22:18.089Z,100103.78
2023-03-21T19:24:47.170Z,100100.97
2023-03-21T19:27:16.083Z,100100.16
2023-03-21T19:29:57.024Z,100096.66
2023-03-21T19:32:33.119Z,100098.47
2023-03-21T19:35:01.866Z,100092.81
2023-03-21T19:37:30.868Z,100099.63
2023-03-21T19:39:59.560Z,100098.47
2023-03-21T19:42:30.710Z,100102.66
2023-03-21T19:44:59.613Z,100098.84
2023-03-21T19:47:28.802Z,100099.34
2023-03-21T19:52:47.898Z,100101.19
2023-03-21T19:55:17.605Z,100092.56
2023-03-21T19:57:48.658Z,100088.41
2023-03-21T20:00:19.784Z,100084.53
2023-03-21T20:02:48.617Z,100085.06
2023-03-21T20:05:20.764Z,100084.25
2023-03-21T20:07:50.273Z,100089.56
2023-03-21T20:10:18.930Z,100086.06
2023-03-21T20:12:47.624Z,100087.72
2023-03-21T20:15:19.554Z,100088.41
2023-03-21T20:17:51.032Z,100091.91
2023-03-21T20:20:21.570Z,100082.09
2023-03-21T20:23:06.111Z,100086.91
2023-03-21T20:25:35.937Z,100084.41
2023-03-21T20:28:26.031Z,100082.88
2023-03-21T20:30:57.357Z,100083.81
2023-03-21T20:33:26.251Z,100079.69
2023-03-21T20:38:52.494Z,100069.16
2023-03-21T20:41:21.291Z,100066.16
2023-03-21T20:46:38.443Z,100062.06
2023-03-21T20:49:08.115Z,100068.84
2023-03-21T20:52:45.820Z,100068.16
2023-03-21T20:54:26.991Z,100065.31
2023-03-21T20:56:55.540Z,100068.31
2023-03-21T20:59:27.594Z,100066.50
2023-03-21T21:01:57.683Z,100069.00
2023-03-21T21:04:46.872Z,100064.16
2023-03-21T21:07:19.029Z,100052.16
2023-03-21T21:09:48.459Z,100050.28
2023-03-21T21:12:19.615Z,100045.97
2023-03-21T21:14:49.352Z,100058.91
2023-03-21T21:18:02.082Z,100057.41
2023-03-21T21:20:17.163Z,100053.53
2023-03-21T21:22:59.087Z,100043.06
2023-03-21T21:25:31.075Z,100049.16
2023-03-21T21:28:01.933Z,100036.41
2023-03-21T21:30:31.901Z,100036.16
2023-03-21T21:33:01.055Z,100040.56
2023-03-21T21:35:29.933Z,100023.03
2023-03-21T21:38:00.968Z,100028.84
2023-03-21T21:40:29.855Z,100033.63
2023-03-21T21:43:03.870Z,100038.44
2023-03-21T21:45:34.192Z,100036.63
2023-03-21T21:48:02.850Z,100032.75
2023-03-21T21:50:31.483Z,100036.19
2023-03-21T21:53:04.088Z,100043.53
2023-03-21T21:55:33.045Z,100044.50
2023-03-21T21:58:02.148Z,100041.84
2023-03-21T22:00:32.332Z,100042.84
2023-03-21T22:03:01.772Z,100039.34
2023-03-21T22:05:30.585Z,100029.22
2023-03-21T22:08:00.756Z,100036.03
2023-03-21T22:10:29.279Z,100035.88
2023-03-21T22:12:57.880Z,100037.97
2023-03-21T22:15:26.938Z,100031.72
2023-03-21T22:17:55.478Z,100024.75
2023-03-21T22:20:24.270Z,100033.91
2023-03-21T22:22:53.018Z,100035.97
2023-03-21T22:25:22.982Z,100035.28
2023-03-21T22:27:51.504Z,100033.31
2023-03-21T22:30:20.348Z,100041.25
2023-03-21T22:33:02.540Z,100033.44
2023-03-21T22:35:34.981Z,100030.91
2023-03-21T22:38:03.424Z,100034.06
2023-03-21T22:40:33.300Z,100032.78
2023-03-21T22:43:01.737Z,100025.16
2023-03-21T22:45:30.278Z,100025.16
2023-03-21T22:48:00.226Z,100017.88
2023-03-21T22:50:29.363Z,99989.44
2023-03-21T22:52:58.140Z,99996.47
2023-03-21T22:55:26.602Z,99997.75
2023-03-21T22:57:56.547Z,100005.88
2023-03-21T23:00:25.448Z,99987.94
2023-03-21T23:02:53.923Z,100007.06
2023-03-21T23:05:22.568Z,100001.94
2023-03-21T23:07:51.424Z,100002.63
2023-03-21T23:10:20.324Z,100007.34
2023-03-21T23:12:49.553Z,100000.94
2023-03-21T23:15:19.628Z,99999.66
2023-03-21T23:17:48.220Z,100000.66
2023-03-21T23:20:16.910Z,99990.28
2023-03-21T23:22:45.519Z,99997.47
2023-03-21T23:25:14.204Z,99998.31
2023-03-21T23:27:42.799Z,99979.31
2023-03-21T23:30:11.731Z,99988.75
2023-03-21T23:32:41.712Z,99987.09
2023-03-21T23:35:11.134Z,99986.97
2023-03-21T23:37:42.583Z,99973.66
2023-03-21T23:40:12.779Z,99986.28
2023-03-21T23:42:41.413Z,99975.31
2023-03-21T23:45:10.891Z,99981.00
2023-03-21T23:47:41.014Z,99989.31
2023-03-21T23:50:11.886Z,99991.28
2023-03-21T23:52:41.855Z,99983.34
2023-03-21T23:55:11.366Z,99982.66
2023-03-21T23:57:41.967Z,99989.53
